Time;durP1;ratioP1;P1;durP2;ratioP2;P2;SDS_P1;SDS_P2;PMS_P1;PMS_P2;Temp;Humidity;BMP_temperature;BMP_pressure;BME280_temperature;BME280_humidity;BME280_pressure;Samples;Min_cycle;Max_cycle;Signal;HPM_P1;HPM_P2
2021/12/15 00:02:18;;;;;;;28.77;19.20;;;;;;;;;;5075035;28;20449;-72
2021/12/15 00:04:45;;;;;;;30.20;16.60;;;;;;;;;;5074171;28;20768;-72
2021/12/15 00:07:14;;;;;;;32.93;16.50;;;;;;;;;;5078001;28;20476;-72
2021/12/15 00:09:41;;;;;;;28.13;16.10;;;;;;;;;;5092246;28;20447;-72
2021/12/15 00:12:09;;;;;;;28.00;14.57;;;;;;;;;;5090699;28;20480;-72
2021/12/15 00:14:37;;;;;;;26.53;16.47;;;;;;;;;;5092309;28;20448;-72
2021/12/15 00:17:04;;;;;;;32.80;16.20;;;;;;;;;;5081141;28;20456;-71
2021/12/15 00:19:31;;;;;;;26.53;14.30;;;;;;;;;;5084276;28;20494;-72
2021/12/15 00:21:59;;;;;;;25.33;15.03;;;;;;;;;;5090012;28;20452;-71
2021/12/15 00:24:28;;;;;;;22.40;13.43;;;;;;;;;;5089136;28;21020;-71
2021/12/15 00:26:55;;;;;;;27.17;14.47;;;;;;;;;;5084790;28;20473;-72
2021/12/15 00:29:23;;;;;;;25.50;14.13;;;;;;;;;;5091438;28;20448;-72
2021/12/15 00:31:51;;;;;;;29.37;15.80;;;;;;;;;;5091641;28;20456;-72
2021/12/15 00:34:19;;;;;;;23.53;14.40;;;;;;;;;;5090552;28;21177;-71
2021/12/15 00:36:47;;;;;;;24.23;14.37;;;;;;;;;;5091469;28;20583;-73
2021/12/15 00:39:15;;;;;;;24.07;15.00;;;;;;;;;;5090776;28;20441;-72
2021/12/15 00:41:44;;;;;;;22.60;13.50;;;;;;;;;;5088723;28;20455;-72
2021/12/15 00:44:11;;;;;;;24.93;14.97;;;;;;;;;;5091168;28;20452;-73
2021/12/15 00:46:39;;;;;;;23.70;13.23;;;;;;;;;;5083248;28;20987;-72
2021/12/15 00:49:07;;;;;;;23.70;12.93;;;;;;;;;;5090705;28;20563;-73
2021/12/15 00:51:35;;;;;;;22.63;13.37;;;;;;;;;;5091034;28;20440;-72
2021/12/15 00:54:02;;;;;;;22.53;13.93;;;;;;;;;;5084778;28;20446;-72
2021/12/15 00:56:29;;;;;;;23.50;14.70;;;;;;;;;;5087060;28;20452;-72
2021/12/15 00:58:58;;;;;;;25.10;14.37;;;;;;;;;;5087210;28;20449;-70
2021/12/15 01:01:26;;;;;;;20.30;13.27;;;;;;;;;;5081630;28;20578;-73
2021/12/15 01:03:54;;;;;;;24.93;15.43;;;;;;;;;;5083410;28;20514;-72
2021/12/15 01:06:22;;;;;;;18.50;13.03;;;;;;;;;;5093456;28;20490;-72
2021/12/15 01:08:58;;;;;;;29.73;14.77;;;;;;;;;;5106909;28;20453;-72
2021/12/15 01:11:34;;;;;;;25.33;13.20;;;;;;;;;;5114526;28;20472;-72
2021/12/15 01:19:52;;;;;;;19.53;12.37;;;;;;;;;;5084342;28;20416;-74
2021/12/15 01:22:21;;;;;;;17.93;11.80;;;;;;;;;;5075964;28;20529;-74
2021/12/15 01:24:49;;;;;;;16.60;10.10;;;;;;;;;;5090663;28;20971;-72
2021/12/15 01:27:16;;;;;;;16.40;10.60;;;;;;;;;;5089643;28;20783;-72
2021/12/15 01:29:44;;;;;;;19.57;11.10;;;;;;;;;;5090246;28;20544;-71
2021/12/15 01:32:12;;;;;;;17.60;11.57;;;;;;;;;;5090497;28;20881;-73
2021/12/15 01:34:39;;;;;;;20.33;12.00;;;;;;;;;;5090711;28;20445;-72
2021/12/15 01:37:06;;;;;;;16.50;11.47;;;;;;;;;;5072095;28;20560;-73
2021/12/15 01:39:33;;;;;;;17.13;11.13;;;;;;;;;;5091806;28;20448;-72
2021/12/15 01:42:01;;;;;;;20.37;13.50;;;;;;;;;;5094060;28;20451;-72
2021/12/15 01:47:14;;;;;;;22.10;12.00;;;;;;;;;;5093449;28;20974;-72
2021/12/15 01:49:44;;;;;;;22.00;13.07;;;;;;;;;;5093892;28;20531;-74
2021/12/15 01:52:14;;;;;;;17.20;11.77;;;;;;;;;;5092839;28;20445;-72
2021/12/15 01:54:42;;;;;;;18.33;12.43;;;;;;;;;;5088660;28;20528;-72
2021/12/15 01:57:10;;;;;;;19.73;11.73;;;;;;;;;;5093686;28;20452;-73
2021/12/15 01:59:38;;;;;;;18.97;12.37;;;;;;;;;;5093966;28;20440;-72
2021/12/15 02:02:06;;;;;;;22.53;12.03;;;;;;;;;;5093924;28;20535;-72
2021/12/15 02:04:34;;;;;;;20.50;11.60;;;;;;;;;;5094585;28;20454;-72
2021/12/15 02:07:03;;;;;;;21.97;13.10;;;;;;;;;;5092653;28;20480;-72
2021/12/15 02:09:50;;;;;;;19.73;11.77;;;;;;;;;;5093722;28;20451;-72
2021/12/15 02:12:20;;;;;;;20.17;12.70;;;;;;;;;;5093241;28;20448;-72
2021/12/15 02:14:48;;;;;;;18.67;12.50;;;;;;;;;;5090355;28;20891;-72
2021/12/15 02:17:16;;;;;;;20.90;12.27;;;;;;;;;;5082912;28;20862;-72
2021/12/15 02:19:45;;;;;;;17.87;11.33;;;;;;;;;;5081237;28;20456;-72
2021/12/15 02:22:13;;;;;;;20.70;13.30;;;;;;;;;;5091663;28;20444;-72
2021/12/15 02:24:42;;;;;;;20.67;12.80;;;;;;;;;;5080462;28;20452;-72
2021/12/15 02:27:12;;;;;;;19.97;11.87;;;;;;;;;;5092287;28;21045;-72
2021/12/15 02:29:42;;;;;;;25.03;14.43;;;;;;;;;;5093231;28;20955;-72
2021/12/15 02:32:17;;;;;;;19.60;11.37;;;;;;;;;;5085182;28;20459;-72
2021/12/15 02:37:30;;;;;;;21.43;12.00;;;;;;;;;;5046422;28;20460;-72
2021/12/15 02:39:59;;;;;;;19.83;11.70;;;;;;;;;;5092313;28;20445;-72
2021/12/15 02:42:28;;;;;;;18.53;11.60;;;;;;;;;;5093383;28;20944;-72
2021/12/15 02:44:56;;;;;;;15.40;11.47;;;;;;;;;;5094231;28;20466;-72
2021/12/15 02:47:25;;;;;;;19.00;11.03;;;;;;;;;;5092228;28;20495;-72
2021/12/15 02:49:53;;;;;;;21.20;13.10;;;;;;;;;;5082820;28;20444;-72
2021/12/15 02:52:20;;;;;;;24.40;13.60;;;;;;;;;;5092639;28;20479;-72
2021/12/15 02:54:49;;;;;;;19.40;12.40;;;;;;;;;;5093693;28;20543;-72
2021/12/15 02:57:17;;;;;;;18.27;11.27;;;;;;;;;;5091824;28;21250;-72
2021/12/15 02:59:53;;;;;;;19.53;12.17;;;;;;;;;;5092468;28;20974;-72
2021/12/15 03:02:47;;;;;;;16.67;11.47;;;;;;;;;;5092166;28;20441;-72
2021/12/15 03:05:20;;;;;;;16.53;10.40;;;;;;;;;;5088294;28;20451;-72
2021/12/15 03:07:54;;;;;;;16.80;9.90;;;;;;;;;;5081598;28;20487;-72
2021/12/15 03:15:53;;;;;;;20.13;12.40;;;;;;;;;;5092807;28;20424;-72
2021/12/15 03:18:21;;;;;;;21.10;12.63;;;;;;;;;;5087670;28;20449;-72
2021/12/15 03:20:50;;;;;;;18.43;11.27;;;;;;;;;;5076658;28;20484;-72
2021/12/15 03:23:19;;;;;;;14.67;10.10;;;;;;;;;;5089121;28;20539;-73
2021/12/15 03:25:48;;;;;;;16.87;11.83;;;;;;;;;;5092254;28;20453;-72
2021/12/15 03:34:07;;;;;;;19.67;11.17;;;;;;;;;;5073320;28;20437;-72
2021/12/15 03:37:06;;;;;;;13.13;9.33;;;;;;;;;;5086183;28;20448;-72
2021/12/15 03:39:30;;;;;;;14.90;9.30;;;;;;;;;;5092064;28;20448;-72
2021/12/15 03:42:03;;;;;;;10.17;6.70;;;;;;;;;;5091617;28;20444;-72
2021/12/15 03:44:32;;;;;;;14.07;8.13;;;;;;;;;;5093262;28;20848;-72
2021/12/15 03:47:00;;;;;;;11.73;7.33;;;;;;;;;;5086483;28;20495;-72
2021/12/15 03:49:27;;;;;;;9.60;6.47;;;;;;;;;;5092185;28;20501;-72
2021/12/15 03:51:55;;;;;;;12.47;8.47;;;;;;;;;;5110083;28;20461;-72
2021/12/15 03:54:22;;;;;;;9.50;7.30;;;;;;;;;;5109115;28;20441;-71
2021/12/15 03:56:50;;;;;;;6.13;4.40;;;;;;;;;;5102856;28;20456;-72
2021/12/15 03:59:19;;;;;;;6.50;3.73;;;;;;;;;;5085746;28;20535;-72
2021/12/15 04:01:47;;;;;;;4.47;3.57;;;;;;;;;;5092324;28;20451;-72
2021/12/15 04:04:14;;;;;;;3.57;2.90;;;;;;;;;;5091551;28;20440;-72
2021/12/15 04:06:42;;;;;;;7.00;3.40;;;;;;;;;;5091589;28;20455;-72
2021/12/15 04:09:10;;;;;;;3.70;3.00;;;;;;;;;;5081615;28;20475;-72
2021/12/15 04:11:37;;;;;;;3.60;3.10;;;;;;;;;;5089865;28;20446;-72
2021/12/15 04:14:08;;;;;;;3.80;3.13;;;;;;;;;;5090036;28;21020;-72
2021/12/15 04:16:43;;;;;;;4.20;3.07;;;;;;;;;;5091648;28;20460;-72
2021/12/15 04:19:12;;;;;;;3.53;2.80;;;;;;;;;;5090182;28;20448;-72
2021/12/15 04:21:40;;;;;;;6.00;4.80;;;;;;;;;;5090303;28;20445;-72
2021/12/15 04:24:07;;;;;;;5.93;4.60;;;;;;;;;;5084576;28;20507;-72
2021/12/15 04:26:34;;;;;;;5.80;4.03;;;;;;;;;;5074436;28;20804;-72
2021/12/15 04:29:03;;;;;;;5.47;3.50;;;;;;;;;;5091045;28;20800;-72
2021/12/15 04:31:32;;;;;;;5.77;4.30;;;;;;;;;;5088382;28;20861;-71
2021/12/15 04:34:02;;;;;;;6.70;4.70;;;;;;;;;;5091416;28;20441;-72
2021/12/15 04:36:30;;;;;;;4.77;4.03;;;;;;;;;;5089972;28;20937;-71
2021/12/15 04:38:58;;;;;;;4.97;3.63;;;;;;;;;;5090763;28;20445;-72
2021/12/15 04:41:26;;;;;;;6.20;4.77;;;;;;;;;;5089292;28;20449;-73
2021/12/15 04:43:57;;;;;;;5.40;4.10;;;;;;;;;;5091968;28;20451;-73
2021/12/15 04:46:25;;;;;;;6.23;5.00;;;;;;;;;;5078289;28;20436;-73
2021/12/15 04:48:53;;;;;;;6.87;4.50;;;;;;;;;;5091030;28;20506;-72
2021/12/15 04:51:22;;;;;;;5.60;4.60;;;;;;;;;;5090482;28;20962;-72
2021/12/15 04:53:50;;;;;;;7.43;4.97;;;;;;;;;;5091575;28;20448;-72
2021/12/15 04:56:17;;;;;;;5.20;4.47;;;;;;;;;;5089914;28;20967;-72
2021/12/15 04:58:44;;;;;;;5.87;4.50;;;;;;;;;;5082415;28;20451;-72
2021/12/15 05:01:12;;;;;;;6.17;5.07;;;;;;;;;;5090367;28;20459;-72
2021/12/15 05:03:40;;;;;;;5.60;4.73;;;;;;;;;;5078031;28;20460;-72
2021/12/15 05:06:07;;;;;;;5.60;4.93;;;;;;;;;;5089364;28;20491;-72
2021/12/15 05:08:36;;;;;;;6.43;4.20;;;;;;;;;;5090661;28;21003;-72
2021/12/15 05:11:04;;;;;;;5.43;4.40;;;;;;;;;;5088495;28;20455;-72
2021/12/15 05:13:31;;;;;;;6.67;4.10;;;;;;;;;;5086441;28;20536;-72
2021/12/15 05:15:59;;;;;;;5.80;3.87;;;;;;;;;;5085427;28;20451;-72
2021/12/15 05:18:26;;;;;;;6.10;4.97;;;;;;;;;;5078666;28;20489;-72
2021/12/15 05:20:54;;;;;;;4.07;3.60;;;;;;;;;;5090544;28;20528;-74
2021/12/15 05:23:27;;;;;;;4.23;3.57;;;;;;;;;;5074523;28;20494;-74
2021/12/15 05:25:57;;;;;;;6.90;4.37;;;;;;;;;;5078603;28;20456;-74
2021/12/15 05:28:24;;;;;;;5.93;4.37;;;;;;;;;;5091234;28;20483;-72
2021/12/15 05:30:51;;;;;;;5.43;4.90;;;;;;;;;;5091086;28;20962;-72
2021/12/15 05:33:18;;;;;;;6.50;5.23;;;;;;;;;;5088800;28;20885;-72
2021/12/15 05:35:46;;;;;;;6.17;5.30;;;;;;;;;;5082367;28;20459;-74
2021/12/15 05:38:13;;;;;;;6.60;4.70;;;;;;;;;;5076198;28;20440;-74
2021/12/15 05:40:40;;;;;;;6.40;4.73;;;;;;;;;;5090715;28;20526;-71
2021/12/15 05:43:09;;;;;;;5.10;3.33;;;;;;;;;;5090141;28;20444;-73
2021/12/15 05:45:37;;;;;;;4.13;3.63;;;;;;;;;;5083459;28;20784;-74
2021/12/15 05:48:05;;;;;;;7.20;4.87;;;;;;;;;;5090045;28;20522;-73
2021/12/15 05:50:33;;;;;;;6.90;4.03;;;;;;;;;;5090861;28;20932;-73
2021/12/15 05:53:01;;;;;;;5.07;4.33;;;;;;;;;;5076661;28;20535;-73
2021/12/15 05:55:29;;;;;;;5.67;4.27;;;;;;;;;;5090364;28;20440;-74
2021/12/15 05:57:56;;;;;;;8.20;4.67;;;;;;;;;;5089736;28;20444;-70
2021/12/15 06:00:27;;;;;;;5.40;4.60;;;;;;;;;;5091065;28;20448;-73
2021/12/15 06:02:54;;;;;;;7.60;6.30;;;;;;;;;;5091150;28;20532;-74
2021/12/15 06:05:22;;;;;;;7.77;6.07;;;;;;;;;;5090490;28;20943;-73
2021/12/15 06:07:49;;;;;;;8.87;5.90;;;;;;;;;;5090895;28;20502;-74
2021/12/15 06:10:18;;;;;;;8.90;5.77;;;;;;;;;;5085860;28;20960;-73
2021/12/15 06:12:47;;;;;;;8.43;6.47;;;;;;;;;;5090583;28;20497;-73
2021/12/15 06:15:20;;;;;;;8.03;6.77;;;;;;;;;;5089725;28;20449;-73
2021/12/15 06:17:49;;;;;;;7.40;6.57;;;;;;;;;;5091236;28;20521;-74
2021/12/15 06:20:16;;;;;;;7.87;6.03;;;;;;;;;;5089771;28;20791;-74
2021/12/15 06:22:45;;;;;;;8.70;6.40;;;;;;;;;;5090537;28;20936;-75
2021/12/15 06:25:14;;;;;;;8.53;6.27;;;;;;;;;;5083795;28;20524;-74
2021/12/15 06:27:41;;;;;;;7.80;6.03;;;;;;;;;;5093426;28;20484;-74
2021/12/15 06:30:09;;;;;;;9.17;7.00;;;;;;;;;;5093336;28;20444;-74
2021/12/15 06:32:36;;;;;;;8.23;6.10;;;;;;;;;;5093929;28;20440;-75
2021/12/15 06:35:06;;;;;;;10.63;6.90;;;;;;;;;;5079654;28;20453;-74
2021/12/15 06:37:33;;;;;;;6.80;5.13;;;;;;;;;;5093564;28;20444;-74
2021/12/15 06:40:00;;;;;;;7.73;6.17;;;;;;;;;;5093598;28;20452;-74
2021/12/15 06:42:29;;;;;;;7.70;6.50;;;;;;;;;;5093387;28;20967;-74
2021/12/15 06:44:57;;;;;;;8.20;6.67;;;;;;;;;;5094432;28;20449;-71
2021/12/15 06:57:13;;;;;;;6.53;5.50;;;;;;;;;;5096906;28;20457;-74
2021/12/15 06:58:37;;;;;;;7.57;6.27;;;;;;;;;;5094606;28;20902;-74
2021/12/15 07:01:05;;;;;;;9.20;7.30;;;;;;;;;;5093234;28;20441;-74
2021/12/15 07:03:32;;;;;;;8.73;7.23;;;;;;;;;;5093748;28;20535;-74
2021/12/15 07:06:00;;;;;;;11.97;8.40;;;;;;;;;;5092649;28;20532;-74
2021/12/15 07:08:28;;;;;;;9.40;7.30;;;;;;;;;;5093282;28;20476;-74
2021/12/15 07:10:57;;;;;;;9.63;6.17;;;;;;;;;;5093613;28;20452;-70
2021/12/15 07:13:25;;;;;;;7.00;5.73;;;;;;;;;;5093651;28;20451;-74
2021/12/15 07:15:59;;;;;;;8.10;7.20;;;;;;;;;;5093387;28;20456;-74
2021/12/15 07:18:36;;;;;;;11.90;7.83;;;;;;;;;;5093656;28;20456;-73
2021/12/15 07:21:08;;;;;;;11.27;6.70;;;;;;;;;;5093003;28;20501;-74
2021/12/15 07:23:35;;;;;;;11.27;8.33;;;;;;;;;;5093491;28;20441;-74
2021/12/15 07:26:02;;;;;;;10.70;7.20;;;;;;;;;;5092135;28;20819;-74
2021/12/15 07:28:29;;;;;;;9.90;8.03;;;;;;;;;;5093091;28;20571;-74
2021/12/15 07:30:57;;;;;;;10.60;7.53;;;;;;;;;;5092759;28;20798;-71
2021/12/15 07:33:24;;;;;;;11.90;9.03;;;;;;;;;;5093284;28;20462;-74
2021/12/15 07:35:51;;;;;;;8.83;7.07;;;;;;;;;;5092360;28;20453;-74
2021/12/15 07:38:20;;;;;;;9.83;7.50;;;;;;;;;;5092334;28;20448;-74
2021/12/15 07:40:47;;;;;;;12.63;8.63;;;;;;;;;;5092853;28;20467;-74
2021/12/15 07:43:23;;;;;;;13.57;9.77;;;;;;;;;;5092195;28;20543;-75
2021/12/15 07:45:52;;;;;;;14.90;9.40;;;;;;;;;;5092495;28;20531;-74
2021/12/15 07:48:20;;;;;;;10.90;7.80;;;;;;;;;;5092004;28;20502;-74
2021/12/15 07:50:49;;;;;;;12.83;8.90;;;;;;;;;;5092610;28;20474;-74
2021/12/15 07:53:18;;;;;;;13.10;8.40;;;;;;;;;;5092211;28;20502;-75
2021/12/15 07:55:47;;;;;;;13.07;8.70;;;;;;;;;;5092411;28;20456;-74
2021/12/15 07:58:14;;;;;;;16.03;9.13;;;;;;;;;;5092037;28;20441;-74
2021/12/15 08:00:42;;;;;;;10.40;9.00;;;;;;;;;;5092295;28;20463;-74
2021/12/15 08:03:10;;;;;;;11.57;7.70;;;;;;;;;;5092090;28;20450;-74
2021/12/15 08:05:38;;;;;;;10.27;7.33;;;;;;;;;;5092062;28;20448;-74
2021/12/15 08:08:05;;;;;;;9.93;7.63;;;;;;;;;;5091831;28;20563;-74
2021/12/15 08:10:34;;;;;;;11.40;7.90;;;;;;;;;;5092388;28;20441;-74
2021/12/15 08:13:03;;;;;;;11.30;7.83;;;;;;;;;;5083366;28;20464;-74
2021/12/15 08:15:30;;;;;;;11.80;8.73;;;;;;;;;;5091747;28;20531;-74
2021/12/15 08:17:57;;;;;;;10.73;7.20;;;;;;;;;;5092082;28;20440;-73
2021/12/15 08:20:27;;;;;;;12.67;8.40;;;;;;;;;;5092521;28;20462;-74
2021/12/15 08:22:55;;;;;;;9.23;6.63;;;;;;;;;;5092520;28;20435;-74
2021/12/15 08:25:22;;;;;;;11.23;6.40;;;;;;;;;;5078307;28;20995;-74
2021/12/15 08:27:51;;;;;;;8.90;5.80;;;;;;;;;;5091950;28;20519;-74
2021/12/15 08:30:21;;;;;;;8.70;6.80;;;;;;;;;;5091447;28;20436;-74
2021/12/15 08:32:48;;;;;;;10.70;7.10;;;;;;;;;;5092049;28;20461;-74
2021/12/15 08:35:16;;;;;;;7.93;6.30;;;;;;;;;;5091126;28;20931;-74
2021/12/15 08:37:43;;;;;;;6.93;5.00;;;;;;;;;;5092005;28;20459;-74
2021/12/15 08:40:11;;;;;;;9.10;6.90;;;;;;;;;;5091686;28;20527;-74
2021/12/15 08:42:38;;;;;;;8.60;5.23;;;;;;;;;;5091733;28;20440;-74
2021/12/15 08:45:06;;;;;;;10.00;7.40;;;;;;;;;;5091099;28;20443;-74
2021/12/15 08:47:35;;;;;;;7.60;6.30;;;;;;;;;;5090753;28;20990;-74
2021/12/15 08:50:04;;;;;;;12.53;6.57;;;;;;;;;;5091309;28;20551;-74
2021/12/15 08:52:31;;;;;;;7.87;5.33;;;;;;;;;;5091421;28;20452;-74
2021/12/15 08:54:59;;;;;;;7.67;4.97;;;;;;;;;;5090866;28;20796;-74
2021/12/15 08:57:26;;;;;;;8.17;5.27;;;;;;;;;;5091780;28;20429;-74
2021/12/15 08:59:53;;;;;;;8.53;5.70;;;;;;;;;;5091664;28;21007;-74
2021/12/15 09:02:20;;;;;;;8.87;6.03;;;;;;;;;;5090714;28;20931;-74
2021/12/15 09:04:49;;;;;;;6.23;4.53;;;;;;;;;;5091343;28;20444;-74
2021/12/15 09:07:16;;;;;;;7.27;5.27;;;;;;;;;;5091374;28;20708;-75
2021/12/15 09:09:43;;;;;;;6.70;4.40;;;;;;;;;;5091214;28;20476;-74
2021/12/15 09:12:11;;;;;;;6.00;4.20;;;;;;;;;;5090776;28;20859;-74
2021/12/15 09:14:38;;;;;;;8.00;5.60;;;;;;;;;;5091173;28;20433;-74
2021/12/15 09:17:06;;;;;;;7.30;5.87;;;;;;;;;;5090558;28;20448;-74
2021/12/15 09:19:34;;;;;;;6.43;4.60;;;;;;;;;;5091589;28;20447;-74
2021/12/15 09:22:03;;;;;;;6.80;4.97;;;;;;;;;;5090969;28;20471;-74
2021/12/15 09:24:30;;;;;;;9.23;5.20;;;;;;;;;;5090886;28;20446;-74
2021/12/15 09:26:58;;;;;;;7.60;4.87;;;;;;;;;;5090727;28;20803;-74
2021/12/15 09:29:26;;;;;;;6.80;4.97;;;;;;;;;;5091149;28;20476;-74
2021/12/15 09:31:53;;;;;;;6.53;4.83;;;;;;;;;;5077717;28;20476;-74
2021/12/15 09:34:21;;;;;;;8.50;5.23;;;;;;;;;;5090219;28;20440;-74
2021/12/15 09:36:48;;;;;;;6.33;4.67;;;;;;;;;;5091119;28;20479;-74
2021/12/15 09:39:17;;;;;;;7.70;5.00;;;;;;;;;;5090300;28;20531;-74
2021/12/15 09:41:45;;;;;;;5.57;4.50;;;;;;;;;;5091049;28;20529;-77
2021/12/15 09:44:15;;;;;;;9.00;5.03;;;;;;;;;;5089918;28;20878;-74
2021/12/15 09:47:10;;;;;;;4.77;3.57;;;;;;;;;;5090888;28;20570;-74
2021/12/15 10:03:35;;;;;;;5.93;5.00;;;;;;;;;;5094676;28;20427;-72
2021/12/15 10:06:18;;;;;;;6.53;5.07;;;;;;;;;;5094032;28;20436;-75
2021/12/15 10:17:29;;;;;;;4.73;3.67;;;;;;;;;;5080691;28;20506;-74
2021/12/15 10:19:59;;;;;;;5.67;4.77;;;;;;;;;;5094119;28;20854;-72
2021/12/15 10:22:34;;;;;;;6.40;4.33;;;;;;;;;;5094978;28;20444;-73
2021/12/15 10:25:01;;;;;;;8.63;4.83;;;;;;;;;;5093272;28;20533;-74
2021/12/15 10:27:38;;;;;;;6.07;4.90;;;;;;;;;;5094246;28;20446;-74
2021/12/15 10:30:11;;;;;;;6.97;4.77;;;;;;;;;;5093673;28;20464;-74
2021/12/15 10:32:39;;;;;;;7.00;4.77;;;;;;;;;;5094597;28;20527;-75
2021/12/15 10:35:08;;;;;;;8.37;5.30;;;;;;;;;;5080580;28;20804;-75
2021/12/15 10:37:36;;;;;;;7.23;5.00;;;;;;;;;;5093923;28;20519;-75
2021/12/15 10:40:10;;;;;;;5.83;4.90;;;;;;;;;;5093446;28;20445;-75
2021/12/15 10:42:39;;;;;;;6.83;4.80;;;;;;;;;;5093939;28;20511;-75
2021/12/15 10:45:08;;;;;;;9.23;5.30;;;;;;;;;;5093358;28;20839;-75
2021/12/15 10:47:41;;;;;;;7.57;5.17;;;;;;;;;;5093747;28;20474;-75
2021/12/15 10:50:12;;;;;;;8.03;5.87;;;;;;;;;;5093292;28;20559;-75
2021/12/15 10:52:50;;;;;;;6.07;4.40;;;;;;;;;;5094000;28;20432;-74
2021/12/15 10:55:17;;;;;;;4.83;4.13;;;;;;;;;;5093134;28;20850;-75
2021/12/15 10:57:46;;;;;;;6.27;4.63;;;;;;;;;;5093719;28;20516;-75
2021/12/15 11:00:16;;;;;;;6.10;4.90;;;;;;;;;;5093021;28;21012;-75
2021/12/15 11:02:43;;;;;;;8.40;4.30;;;;;;;;;;5094066;28;20437;-74
2021/12/15 11:05:14;;;;;;;6.40;4.53;;;;;;;;;;5092927;28;20769;-75
2021/12/15 11:07:42;;;;;;;6.00;4.63;;;;;;;;;;5093874;28;20773;-75
2021/12/15 11:10:11;;;;;;;7.40;6.27;;;;;;;;;;5092568;28;20567;-74
2021/12/15 11:12:40;;;;;;;6.63;5.17;;;;;;;;;;5093120;28;20433;-75
2021/12/15 11:15:10;;;;;;;7.10;4.67;;;;;;;;;;5092417;28;20527;-75
2021/12/15 11:17:39;;;;;;;6.03;4.77;;;;;;;;;;5093496;28;20539;-75
2021/12/15 11:20:08;;;;;;;7.50;4.60;;;;;;;;;;5092916;28;20440;-74
2021/12/15 11:22:53;;;;;;;5.33;4.67;;;;;;;;;;5093249;28;21001;-75
2021/12/15 11:25:27;;;;;;;6.13;4.10;;;;;;;;;;5092570;28;20935;-75
2021/12/15 11:27:57;;;;;;;11.03;5.60;;;;;;;;;;5093600;28;20439;-74
2021/12/15 11:30:29;;;;;;;8.10;5.17;;;;;;;;;;5093474;28;20508;-74
2021/12/15 11:32:57;;;;;;;5.40;4.50;;;;;;;;;;5093236;28;20436;-70
2021/12/15 11:35:26;;;;;;;5.73;4.43;;;;;;;;;;5092815;28;20444;-75
2021/12/15 11:37:55;;;;;;;7.00;5.20;;;;;;;;;;5093345;28;20523;-75
2021/12/15 11:40:27;;;;;;;5.63;4.83;;;;;;;;;;5093097;28;20540;-74
2021/12/15 11:42:55;;;;;;;18.80;7.13;;;;;;;;;;5093001;28;20497;-75
2021/12/15 11:45:22;;;;;;;12.70;5.00;;;;;;;;;;5092940;28;20440;-75
2021/12/15 11:47:50;;;;;;;6.37;4.47;;;;;;;;;;5092822;28;20802;-75
2021/12/15 11:50:21;;;;;;;8.83;6.00;;;;;;;;;;5092157;28;20484;-75
2021/12/15 11:52:49;;;;;;;17.47;5.80;;;;;;;;;;5092940;28;20523;-75
2021/12/15 11:55:26;;;;;;;7.00;4.87;;;;;;;;;;5092075;28;20432;-75
2021/12/15 11:57:54;;;;;;;6.57;4.80;;;;;;;;;;5093120;28;20432;-75
2021/12/15 12:00:22;;;;;;;7.33;5.43;;;;;;;;;;5092564;28;20572;-75
2021/12/15 12:02:53;;;;;;;7.50;5.03;;;;;;;;;;5092720;28;20859;-75
2021/12/15 12:05:22;;;;;;;8.13;5.70;;;;;;;;;;5092042;28;20440;-74
2021/12/15 12:07:53;;;;;;;6.43;5.00;;;;;;;;;;5092755;28;20444;-75
2021/12/15 12:10:24;;;;;;;6.87;5.50;;;;;;;;;;5091789;28;20472;-74
2021/12/15 12:12:54;;;;;;;6.60;5.63;;;;;;;;;;5092417;28;20432;-74
2021/12/15 12:15:22;;;;;;;9.23;5.90;;;;;;;;;;5092241;28;20782;-74
2021/12/15 12:17:51;;;;;;;8.80;5.90;;;;;;;;;;5092021;28;20483;-74
2021/12/15 12:20:21;;;;;;;6.97;5.77;;;;;;;;;;5091456;28;20960;-74
2021/12/15 12:22:49;;;;;;;5.70;4.90;;;;;;;;;;5092364;28;20475;-74
2021/12/15 12:25:17;;;;;;;5.80;4.90;;;;;;;;;;5090946;28;21112;-74
2021/12/15 12:27:45;;;;;;;7.03;6.17;;;;;;;;;;5091743;28;20460;-74
2021/12/15 12:30:13;;;;;;;6.90;5.53;;;;;;;;;;5091590;28;20482;-74
2021/12/15 12:32:40;;;;;;;7.20;5.53;;;;;;;;;;5092153;28;20877;-74
2021/12/15 12:35:08;;;;;;;7.80;6.03;;;;;;;;;;5090832;28;20472;-74
2021/12/15 12:37:38;;;;;;;7.70;6.37;;;;;;;;;;5091621;28;20429;-74
2021/12/15 12:40:16;;;;;;;7.13;5.60;;;;;;;;;;5078279;28;20462;-74
2021/12/15 12:42:44;;;;;;;5.97;4.90;;;;;;;;;;5091731;28;20442;-74
2021/12/15 12:45:14;;;;;;;6.50;5.40;;;;;;;;;;5090692;28;20447;-77
2021/12/15 12:47:56;;;;;;;5.93;5.30;;;;;;;;;;5091669;28;20486;-75
2021/12/15 13:01:34;;;;;;;5.53;5.03;;;;;;;;;;5074295;28;20456;-75
2021/12/15 13:04:09;;;;;;;6.23;5.50;;;;;;;;;;5090932;28;20460;-73
2021/12/15 13:06:41;;;;;;;5.43;4.93;;;;;;;;;;5091855;28;20513;-74
2021/12/15 13:09:11;;;;;;;6.60;4.67;;;;;;;;;;5077611;28;20482;-75
2021/12/15 13:11:39;;;;;;;5.20;4.80;;;;;;;;;;5091214;28;20467;-74
2021/12/15 13:14:08;;;;;;;5.17;4.67;;;;;;;;;;5090237;28;20511;-74
2021/12/15 13:16:41;;;;;;;4.60;4.17;;;;;;;;;;5091533;28;20518;-75
2021/12/15 13:19:16;;;;;;;6.10;4.60;;;;;;;;;;5090990;28;20523;-75
2021/12/15 13:21:49;;;;;;;4.47;4.07;;;;;;;;;;5092782;28;20490;-74
2021/12/15 13:30:25;;;;;;;6.37;5.73;;;;;;;;;;5079466;28;20459;-75
2021/12/15 13:32:54;;;;;;;7.10;6.23;;;;;;;;;;5091777;28;20436;-75
2021/12/15 13:35:25;;;;;;;6.60;5.77;;;;;;;;;;5094274;28;20531;-75
2021/12/15 13:37:54;;;;;;;6.90;5.37;;;;;;;;;;5096586;28;20455;-75
2021/12/15 13:40:40;;;;;;;6.67;5.97;;;;;;;;;;5097012;28;20499;-75
2021/12/15 13:43:29;;;;;;;6.20;5.53;;;;;;;;;;5093194;28;20468;-75
2021/12/15 13:45:56;;;;;;;6.03;5.23;;;;;;;;;;5094854;28;20523;-71
2021/12/15 13:48:38;;;;;;;6.17;5.17;;;;;;;;;;5095496;28;20478;-75
2021/12/15 13:51:05;;;;;;;5.50;4.80;;;;;;;;;;5093705;28;20511;-75
2021/12/15 13:53:33;;;;;;;6.63;5.50;;;;;;;;;;5094860;28;20519;-74
2021/12/15 13:56:01;;;;;;;5.90;5.30;;;;;;;;;;5094677;28;20778;-74
2021/12/15 13:58:32;;;;;;;5.13;4.63;;;;;;;;;;5095053;28;20775;-74
2021/12/15 14:01:01;;;;;;;5.77;4.80;;;;;;;;;;5094150;28;20990;-74
2021/12/15 14:03:40;;;;;;;5.40;4.07;;;;;;;;;;5094557;28;20441;-74
2021/12/15 14:06:12;;;;;;;5.07;4.27;;;;;;;;;;5094352;28;20439;-75
2021/12/15 14:08:40;;;;;;;6.17;5.40;;;;;;;;;;5094606;28;20440;-75
2021/12/15 14:11:10;;;;;;;5.90;5.00;;;;;;;;;;5093902;28;20965;-74
2021/12/15 14:13:43;;;;;;;6.53;5.50;;;;;;;;;;5094348;28;20433;-75
2021/12/15 14:16:10;;;;;;;11.53;5.07;;;;;;;;;;5094382;28;20441;-75
2021/12/15 14:18:38;;;;;;;8.40;4.90;;;;;;;;;;5094875;28;20446;-75
2021/12/15 14:21:07;;;;;;;5.33;4.80;;;;;;;;;;5093956;28;20539;-75
2021/12/15 14:23:35;;;;;;;5.67;4.80;;;;;;;;;;5094317;28;20433;-74
2021/12/15 14:26:04;;;;;;;5.63;4.20;;;;;;;;;;5094463;28;20830;-75
2021/12/15 14:28:33;;;;;;;33.27;7.20;;;;;;;;;;5094050;28;20519;-75
2021/12/15 14:31:03;;;;;;;10.00;7.83;;;;;;;;;;5094029;28;20498;-76
2021/12/15 14:33:32;;;;;;;5.27;4.30;;;;;;;;;;5094205;28;20528;-74
2021/12/15 14:36:01;;;;;;;8.90;4.97;;;;;;;;;;5093908;28;20491;-74
2021/12/15 14:38:36;;;;;;;5.20;4.70;;;;;;;;;;5094437;28;20462;-74
2021/12/15 14:41:06;;;;;;;6.13;5.50;;;;;;;;;;5093913;28;20543;-74
2021/12/15 14:43:33;;;;;;;4.57;4.17;;;;;;;;;;5093904;28;20447;-75
2021/12/15 14:46:02;;;;;;;5.83;4.43;;;;;;;;;;5092354;28;20432;-75
2021/12/15 14:48:29;;;;;;;11.70;5.00;;;;;;;;;;5094181;28;20473;-75
2021/12/15 14:50:57;;;;;;;7.33;6.20;;;;;;;;;;5093556;28;20475;-73
2021/12/15 14:53:24;;;;;;;5.70;4.67;;;;;;;;;;5093895;28;20445;-75
2021/12/15 14:55:51;;;;;;;7.13;5.37;;;;;;;;;;5094206;28;20472;-75
2021/12/15 14:58:23;;;;;;;8.00;5.27;;;;;;;;;;5093534;28;20783;-75
2021/12/15 15:00:50;;;;;;;5.40;4.90;;;;;;;;;;5093454;28;20990;-74
2021/12/15 15:03:19;;;;;;;5.90;5.20;;;;;;;;;;5093156;28;20463;-75
2021/12/15 15:05:47;;;;;;;5.03;4.53;;;;;;;;;;5093504;28;20997;-75
2021/12/15 15:08:16;;;;;;;5.90;5.33;;;;;;;;;;5093157;28;20479;-74
2021/12/15 15:10:44;;;;;;;4.73;4.33;;;;;;;;;;5093428;28;20575;-75
2021/12/15 15:13:12;;;;;;;5.10;4.10;;;;;;;;;;5092182;28;20457;-74
2021/12/15 15:15:44;;;;;;;4.50;4.10;;;;;;;;;;5093805;28;20527;-74
2021/12/15 15:18:18;;;;;;;7.47;5.20;;;;;;;;;;5092879;28;21001;-74
2021/12/15 15:20:48;;;;;;;6.07;5.47;;;;;;;;;;5093420;28;20451;-74
2021/12/15 15:23:17;;;;;;;4.70;4.20;;;;;;;;;;5092373;28;20449;-74
2021/12/15 15:25:46;;;;;;;5.73;4.57;;;;;;;;;;5093097;28;20457;-75
2021/12/15 15:28:14;;;;;;;4.50;3.80;;;;;;;;;;5092264;28;20932;-74
2021/12/15 15:30:42;;;;;;;5.33;4.83;;;;;;;;;;5092975;28;21079;-74
2021/12/15 15:33:10;;;;;;;5.60;4.93;;;;;;;;;;5092029;28;20449;-75
2021/12/15 15:35:39;;;;;;;5.13;4.63;;;;;;;;;;5093131;28;20455;-74
2021/12/15 15:38:12;;;;;;;5.70;4.70;;;;;;;;;;5092418;28;20449;-74
2021/12/15 15:40:39;;;;;;;5.60;4.50;;;;;;;;;;5093179;28;20527;-74
2021/12/15 15:43:09;;;;;;;5.30;4.80;;;;;;;;;;5091554;28;20444;-74
2021/12/15 15:45:38;;;;;;;5.33;4.53;;;;;;;;;;5093072;28;20541;-74
2021/12/15 15:48:07;;;;;;;4.90;4.23;;;;;;;;;;5091991;28;20490;-74
2021/12/15 15:50:35;;;;;;;5.30;4.80;;;;;;;;;;5092785;28;20520;-74
2021/12/15 15:53:03;;;;;;;4.80;4.30;;;;;;;;;;5091938;28;20819;-74
2021/12/15 15:55:32;;;;;;;5.60;5.07;;;;;;;;;;5092622;28;20444;-74
2021/12/15 15:58:01;;;;;;;5.97;4.57;;;;;;;;;;5091587;28;21008;-75
2021/12/15 16:00:30;;;;;;;5.80;5.23;;;;;;;;;;5092546;28;20448;-73